To NAV CANADA Home Page Login to a new session Search on AWWS site Feedback and Comments Disclaimer Vers la page française équivalente Tips FAQ What's new on the site To the Forecasts and Observations / NOTAM section To "File a Flight Plan" website Publications and other links Update of the User's profile FIC Telephone Numbers My Weather Data Folder Route Weather Data Regional Weather Data Local Weather Data To the Forecasts and Observations / NOTAM section
Request Generated 10/17/2017 at 01:42:42 UTC . Weather information available at that time is displayed.

METAR/TAF

SWIFT CURRENT/SK    (show WxCam)

METAR CYYN 170100Z AUTO 19012KT 9SM CLR 10/M01 A2979 RMK SLP101
DENSITY ALT 2900FT=
METAR CYYN 170000Z AUTO 21008KT 6SM HZ CLR 13/M01 A2981 RMK SLP106
DENSITY ALT 3100FT=
SPECI CYYN 162358Z AUTO 21008KT 6SM HZ CLR 13/M01 A2981 RMK SLP105
DENSITY ALT 3200FT=
SPECI CYYN 162355Z AUTO 22009KT 5SM HZ CLR 14/M01 A2981 RMK SLP105
DENSITY ALT 3200FT=
SPECI CYYN 162353Z AUTO 22009KT 6SM HZ CLR 14/M01 A2981 RMK SLP105
DENSITY ALT 3200FT=
SPECI CYYN 162348Z AUTO 22009KT 5SM HZ CLR 15/M01 A2981 RMK SLP106
DENSITY ALT 3300FT=
METAR CYYN 162300Z AUTO 24013G19KT 9SM CLR 17/M02 A2982 RMK SLP105
DENSITY ALT 3600FT=

TAF CYYN 162338Z 1700/1712 24012KT P6SM SCT250
RMK FCST BASED ON AUTO OBS. NXT FCST BY 170600Z=
Your time UTC time
Weather data provided by Environment Canada and NAV CANADA